sensor_id;sensor_type;location;lat;lon;timestamp;P1;durP1;ratioP1;P2;durP2;ratioP2
70829;SDS011;58451;51.550;7.208;2022-12-29T00:00:26;1.40;;;0.40;;
70829;SDS011;58451;51.550;7.208;2022-12-29T00:01:58;2.20;;;0.40;;
70829;SDS011;58451;51.550;7.208;2022-12-29T00:03:29;3.70;;;0.80;;
70829;SDS011;58451;51.550;7.208;2022-12-29T00:05:02;3.10;;;0.60;;
70829;SDS011;58451;51.550;7.208;2022-12-29T00:06:35;3.10;;;0.40;;
70829;SDS011;58451;51.550;7.208;2022-12-29T00:08:10;2.50;;;0.60;;
70829;SDS011;58451;51.550;7.208;2022-12-29T00:09:42;4.70;;;1.10;;
70829;SDS011;58451;51.550;7.208;2022-12-29T00:11:19;1.40;;;0.50;;
70829;SDS011;58451;51.550;7.208;2022-12-29T00:12:55;2.00;;;0.40;;
70829;SDS011;58451;51.550;7.208;2022-12-29T00:14:47;3.10;;;0.50;;
70829;SDS011;58451;51.550;7.208;2022-12-29T00:16:40;3.20;;;0.60;;
70829;SDS011;58451;51.550;7.208;2022-12-29T00:18:14;5.00;;;1.00;;
70829;SDS011;58451;51.550;7.208;2022-12-29T00:19:46;3.20;;;1.00;;
70829;SDS011;58451;51.550;7.208;2022-12-29T00:21:38;4.20;;;0.80;;
70829;SDS011;58451;51.550;7.208;2022-12-29T00:23:28;3.40;;;0.60;;
70829;SDS011;58451;51.550;7.208;2022-12-29T00:25:18;2.30;;;0.50;;
70829;SDS011;58451;51.550;7.208;2022-12-29T00:27:12;3.20;;;0.50;;
70829;SDS011;58451;51.550;7.208;2022-12-29T00:29:04;2.10;;;0.50;;
70829;SDS011;58451;51.550;7.208;2022-12-29T00:30:59;2.40;;;0.50;;
70829;SDS011;58451;51.550;7.208;2022-12-29T00:32:50;4.50;;;0.50;;
70829;SDS011;58451;51.550;7.208;2022-12-29T00:34:41;1.10;;;0.30;;
70829;SDS011;58451;51.550;7.208;2022-12-29T00:36:34;2.10;;;0.40;;
70829;SDS011;58451;51.550;7.208;2022-12-29T00:38:10;3.50;;;0.50;;
70829;SDS011;58451;51.550;7.208;2022-12-29T00:40:02;1.60;;;0.40;;
70829;SDS011;58451;51.550;7.208;2022-12-29T00:41:53;1.90;;;0.40;;
70829;SDS011;58451;51.550;7.208;2022-12-29T00:43:43;2.10;;;0.30;;
70829;SDS011;58451;51.550;7.208;2022-12-29T00:45:34;1.30;;;0.30;;
70829;SDS011;58451;51.550;7.208;2022-12-29T00:47:08;1.60;;;0.50;;
70829;SDS011;58451;51.550;7.208;2022-12-29T00:48:40;2.20;;;0.50;;
70829;SDS011;58451;51.550;7.208;2022-12-29T00:50:30;2.40;;;0.50;;
70829;SDS011;58451;51.550;7.208;2022-12-29T00:52:07;2.60;;;0.40;;
70829;SDS011;58451;51.550;7.208;2022-12-29T00:53:42;1.90;;;0.40;;
70829;SDS011;58451;51.550;7.208;2022-12-29T00:55:14;0.90;;;0.30;;
70829;SDS011;58451;51.550;7.208;2022-12-29T00:56:48;1.60;;;0.30;;
70829;SDS011;58451;51.550;7.208;2022-12-29T00:58:20;2.50;;;0.50;;
70829;SDS011;58451;51.550;7.208;2022-12-29T00:59:52;1.40;;;0.30;;
70829;SDS011;58451;51.550;7.208;2022-12-29T01:01:24;1.50;;;0.30;;
70829;SDS011;58451;51.550;7.208;2022-12-29T01:02:56;1.10;;;0.40;;
70829;SDS011;58451;51.550;7.208;2022-12-29T01:04:28;1.80;;;0.30;;
70829;SDS011;58451;51.550;7.208;2022-12-29T01:06:02;1.40;;;0.30;;
70829;SDS011;58451;51.550;7.208;2022-12-29T01:07:37;1.40;;;0.30;;
70829;SDS011;58451;51.550;7.208;2022-12-29T01:09:10;1.60;;;0.30;;
70829;SDS011;58451;51.550;7.208;2022-12-29T01:11:10;1.70;;;0.40;;
70829;SDS011;58451;51.550;7.208;2022-12-29T01:12:44;1.60;;;0.30;;
70829;SDS011;58451;51.550;7.208;2022-12-29T01:14:17;1.50;;;0.30;;
70829;SDS011;58451;51.550;7.208;2022-12-29T01:15:52;1.30;;;0.30;;
70829;SDS011;58451;51.550;7.208;2022-12-29T01:17:25;2.00;;;0.20;;
70829;SDS011;58451;51.550;7.208;2022-12-29T01:18:57;1.30;;;0.30;;
70829;SDS011;58451;51.550;7.208;2022-12-29T01:20:29;1.30;;;0.30;;
70829;SDS011;58451;51.550;7.208;2022-12-29T01:22:01;1.90;;;0.40;;
70829;SDS011;58451;51.550;7.208;2022-12-29T01:23:34;1.20;;;0.30;;
70829;SDS011;58451;51.550;7.208;2022-12-29T01:25:10;0.90;;;0.30;;
70829;SDS011;58451;51.550;7.208;2022-12-29T01:26:42;0.90;;;0.20;;
70829;SDS011;58451;51.550;7.208;2022-12-29T01:28:14;1.40;;;0.30;;
70829;SDS011;58451;51.550;7.208;2022-12-29T01:29:51;1.40;;;0.30;;
70829;SDS011;58451;51.550;7.208;2022-12-29T01:31:23;1.10;;;0.20;;
70829;SDS011;58451;51.550;7.208;2022-12-29T01:32:55;1.70;;;0.30;;
70829;SDS011;58451;51.550;7.208;2022-12-29T01:34:26;1.10;;;0.20;;
70829;SDS011;58451;51.550;7.208;2022-12-29T01:36:03;0.60;;;0.20;;
70829;SDS011;58451;51.550;7.208;2022-12-29T01:37:38;1.20;;;0.30;;
70829;SDS011;58451;51.550;7.208;2022-12-29T01:39:10;1.30;;;0.20;;
70829;SDS011;58451;51.550;7.208;2022-12-29T01:40:46;2.40;;;0.30;;
70829;SDS011;58451;51.550;7.208;2022-12-29T01:42:21;0.90;;;0.20;;
70829;SDS011;58451;51.550;7.208;2022-12-29T01:43:57;0.70;;;0.30;;
70829;SDS011;58451;51.550;7.208;2022-12-29T01:45:32;0.90;;;0.20;;
70829;SDS011;58451;51.550;7.208;2022-12-29T01:47:04;0.90;;;0.30;;
70829;SDS011;58451;51.550;7.208;2022-12-29T01:48:39;0.60;;;0.20;;
70829;SDS011;58451;51.550;7.208;2022-12-29T01:52:02;0.70;;;0.20;;
70829;SDS011;58451;51.550;7.208;2022-12-29T01:53:37;0.30;;;0.10;;
70829;SDS011;58451;51.550;7.208;2022-12-29T01:55:10;1.20;;;0.10;;
70829;SDS011;58451;51.550;7.208;2022-12-29T01:56:44;0.90;;;0.20;;
70829;SDS011;58451;51.550;7.208;2022-12-29T01:58:20;1.30;;;0.30;;
70829;SDS011;58451;51.550;7.208;2022-12-29T02:00:08;1.10;;;0.20;;
70829;SDS011;58451;51.550;7.208;2022-12-29T02:01:44;0.30;;;0.20;;
70829;SDS011;58451;51.550;7.208;2022-12-29T02:03:18;0.70;;;0.20;;
70829;SDS011;58451;51.550;7.208;2022-12-29T02:04:55;0.30;;;0.10;;
70829;SDS011;58451;51.550;7.208;2022-12-29T02:06:55;0.70;;;0.20;;
70829;SDS011;58451;51.550;7.208;2022-12-29T02:08:33;0.40;;;0.20;;
70829;SDS011;58451;51.550;7.208;2022-12-29T02:10:05;1.80;;;0.30;;
70829;SDS011;58451;51.550;7.208;2022-12-29T02:11:38;0.40;;;0.10;;
70829;SDS011;58451;51.550;7.208;2022-12-29T02:13:10;0.80;;;0.20;;
70829;SDS011;58451;51.550;7.208;2022-12-29T02:14:42;0.50;;;0.20;;
70829;SDS011;58451;51.550;7.208;2022-12-29T02:29:08;1.30;;;0.20;;
70829;SDS011;58451;51.550;7.208;2022-12-29T02:33:29;0.40;;;0.10;;
70829;SDS011;58451;51.550;7.208;2022-12-29T02:35:25;0.50;;;0.10;;
70829;SDS011;58451;51.550;7.208;2022-12-29T02:37:28;1.20;;;0.20;;
70829;SDS011;58451;51.550;7.208;2022-12-29T02:41:26;1.30;;;0.10;;
70829;SDS011;58451;51.550;7.208;2022-12-29T02:43:22;0.90;;;0.20;;
70829;SDS011;58451;51.550;7.208;2022-12-29T02:45:21;1.80;;;0.20;;
70829;SDS011;58451;51.550;7.208;2022-12-29T02:49:15;0.80;;;0.20;;
70829;SDS011;58451;51.550;7.208;2022-12-29T02:51:01;1.10;;;0.20;;
70829;SDS011;58451;51.550;7.208;2022-12-29T02:53:00;1.70;;;0.10;;
70829;SDS011;58451;51.550;7.208;2022-12-29T02:54:38;0.80;;;0.20;;
70829;SDS011;58451;51.550;7.208;2022-12-29T02:56:14;1.10;;;0.20;;
70829;SDS011;58451;51.550;7.208;2022-12-29T02:57:46;1.00;;;0.20;;
70829;SDS011;58451;51.550;7.208;2022-12-29T02:59:17;1.40;;;0.10;;
70829;SDS011;58451;51.550;7.208;2022-12-29T03:07:06;1.00;;;0.20;;
70829;SDS011;58451;51.550;7.208;2022-12-29T03:09:29;0.70;;;0.20;;
70829;SDS011;58451;51.550;7.208;2022-12-29T03:11:28;1.20;;;0.20;;
70829;SDS011;58451;51.550;7.208;2022-12-29T03:13:45;1.50;;;0.20;;
70829;SDS011;58451;51.550;7.208;2022-12-29T03:15:50;2.20;;;0.20;;
70829;SDS011;58451;51.550;7.208;2022-12-29T03:17:46;1.30;;;0.20;;
70829;SDS011;58451;51.550;7.208;2022-12-29T03:19:24;2.20;;;0.30;;
70829;SDS011;58451;51.550;7.208;2022-12-29T03:21:07;1.00;;;0.30;;
70829;SDS011;58451;51.550;7.208;2022-12-29T03:22:47;1.60;;;0.30;;
70829;SDS011;58451;51.550;7.208;2022-12-29T03:24:28;3.00;;;0.40;;
70829;SDS011;58451;51.550;7.208;2022-12-29T03:26:07;2.00;;;0.30;;
70829;SDS011;58451;51.550;7.208;2022-12-29T03:27:53;2.40;;;0.20;;
70829;SDS011;58451;51.550;7.208;2022-12-29T03:29:33;0.70;;;0.20;;
70829;SDS011;58451;51.550;7.208;2022-12-29T03:31:12;1.90;;;0.30;;
70829;SDS011;58451;51.550;7.208;2022-12-29T03:32:54;0.90;;;0.20;;
70829;SDS011;58451;51.550;7.208;2022-12-29T03:34:31;1.20;;;0.20;;
70829;SDS011;58451;51.550;7.208;2022-12-29T03:36:07;0.70;;;0.20;;
70829;SDS011;58451;51.550;7.208;2022-12-29T03:37:59;1.10;;;0.20;;
70829;SDS011;58451;51.550;7.208;2022-12-29T03:39:38;1.80;;;0.30;;
70829;SDS011;58451;51.550;7.208;2022-12-29T03:41:14;2.90;;;0.70;;
70829;SDS011;58451;51.550;7.208;2022-12-29T03:42:52;2.70;;;0.20;;
70829;SDS011;58451;51.550;7.208;2022-12-29T03:44:37;0.90;;;0.20;;
70829;SDS011;58451;51.550;7.208;2022-12-29T03:46:12;1.40;;;0.30;;
70829;SDS011;58451;51.550;7.208;2022-12-29T03:47:45;0.70;;;0.20;;
70829;SDS011;58451;51.550;7.208;2022-12-29T03:49:17;0.60;;;0.20;;
70829;SDS011;58451;51.550;7.208;2022-12-29T03:50:50;1.20;;;0.30;;
70829;SDS011;58451;51.550;7.208;2022-12-29T03:52:22;1.40;;;0.20;;
70829;SDS011;58451;51.550;7.208;2022-12-29T03:53:55;1.70;;;0.30;;
70829;SDS011;58451;51.550;7.208;2022-12-29T03:55:27;0.90;;;0.20;;
70829;SDS011;58451;51.550;7.208;2022-12-29T03:57:00;2.50;;;0.30;;
70829;SDS011;58451;51.550;7.208;2022-12-29T03:58:40;1.00;;;0.20;;
70829;SDS011;58451;51.550;7.208;2022-12-29T04:00:20;2.20;;;0.30;;
70829;SDS011;58451;51.550;7.208;2022-12-29T04:01:52;1.70;;;0.30;;
70829;SDS011;58451;51.550;7.208;2022-12-29T04:03:25;0.80;;;0.20;;
70829;SDS011;58451;51.550;7.208;2022-12-29T04:04:57;0.70;;;0.20;;
70829;SDS011;58451;51.550;7.208;2022-12-29T04:06:29;1.00;;;0.30;;
70829;SDS011;58451;51.550;7.208;2022-12-29T04:08:07;1.30;;;0.30;;
70829;SDS011;58451;51.550;7.208;2022-12-29T04:09:39;1.30;;;0.20;;
70829;SDS011;58451;51.550;7.208;2022-12-29T04:11:12;1.50;;;0.30;;
70829;SDS011;58451;51.550;7.208;2022-12-29T04:12:45;1.30;;;0.20;;
70829;SDS011;58451;51.550;7.208;2022-12-29T04:14:18;0.60;;;0.20;;
70829;SDS011;58451;51.550;7.208;2022-12-29T04:15:50;2.30;;;0.30;;
70829;SDS011;58451;51.550;7.208;2022-12-29T04:17:22;2.20;;;0.30;;
70829;SDS011;58451;51.550;7.208;2022-12-29T04:18:56;1.50;;;0.20;;
70829;SDS011;58451;51.550;7.208;2022-12-29T04:20:29;1.60;;;0.20;;
70829;SDS011;58451;51.550;7.208;2022-12-29T04:22:19;2.90;;;0.20;;
70829;SDS011;58451;51.550;7.208;2022-12-29T04:23:51;1.10;;;0.20;;
70829;SDS011;58451;51.550;7.208;2022-12-29T04:25:23;1.30;;;0.20;;
70829;SDS011;58451;51.550;7.208;2022-12-29T04:26:55;0.60;;;0.20;;
70829;SDS011;58451;51.550;7.208;2022-12-29T04:28:57;2.00;;;0.30;;
70829;SDS011;58451;51.550;7.208;2022-12-29T04:30:52;1.00;;;0.20;;
70829;SDS011;58451;51.550;7.208;2022-12-29T04:32:38;2.00;;;0.20;;
70829;SDS011;58451;51.550;7.208;2022-12-29T04:34:10;1.60;;;0.20;;
70829;SDS011;58451;51.550;7.208;2022-12-29T04:35:43;1.70;;;0.30;;
70829;SDS011;58451;51.550;7.208;2022-12-29T04:37:15;1.10;;;0.20;;
70829;SDS011;58451;51.550;7.208;2022-12-29T04:38:47;2.20;;;0.20;;
70829;SDS011;58451;51.550;7.208;2022-12-29T04:40:18;1.60;;;0.20;;
70829;SDS011;58451;51.550;7.208;2022-12-29T04:41:50;2.70;;;0.30;;
70829;SDS011;58451;51.550;7.208;2022-12-29T04:43:24;1.70;;;0.40;;
70829;SDS011;58451;51.550;7.208;2022-12-29T04:45:15;1.60;;;0.20;;
70829;SDS011;58451;51.550;7.208;2022-12-29T04:46:57;2.10;;;0.30;;
70829;SDS011;58451;51.550;7.208;2022-12-29T04:48:55;1.50;;;0.30;;
70829;SDS011;58451;51.550;7.208;2022-12-29T04:50:34;1.50;;;0.20;;
70829;SDS011;58451;51.550;7.208;2022-12-29T04:52:22;0.50;;;0.20;;
70829;SDS011;58451;51.550;7.208;2022-12-29T04:53:54;0.80;;;0.10;;
70829;SDS011;58451;51.550;7.208;2022-12-29T04:55:27;1.30;;;0.20;;
70829;SDS011;58451;51.550;7.208;2022-12-29T04:56:59;1.50;;;0.20;;
70829;SDS011;58451;51.550;7.208;2022-12-29T04:58:32;2.30;;;0.20;;
70829;SDS011;58451;51.550;7.208;2022-12-29T05:00:05;2.00;;;0.20;;
70829;SDS011;58451;51.550;7.208;2022-12-29T05:01:39;1.40;;;0.30;;
70829;SDS011;58451;51.550;7.208;2022-12-29T05:03:11;0.60;;;0.20;;
70829;SDS011;58451;51.550;7.208;2022-12-29T05:04:46;0.60;;;0.10;;
70829;SDS011;58451;51.550;7.208;2022-12-29T05:06:18;1.50;;;0.20;;
70829;SDS011;58451;51.550;7.208;2022-12-29T05:07:50;1.00;;;0.20;;
70829;SDS011;58451;51.550;7.208;2022-12-29T05:09:22;0.80;;;0.30;;
70829;SDS011;58451;51.550;7.208;2022-12-29T05:10:55;0.80;;;0.20;;
70829;SDS011;58451;51.550;7.208;2022-12-29T05:12:31;2.10;;;0.30;;
70829;SDS011;58451;51.550;7.208;2022-12-29T05:14:05;0.50;;;0.20;;
70829;SDS011;58451;51.550;7.208;2022-12-29T05:15:38;0.90;;;0.20;;
70829;SDS011;58451;51.550;7.208;2022-12-29T05:17:11;2.20;;;0.30;;
70829;SDS011;58451;51.550;7.208;2022-12-29T05:18:42;0.70;;;0.20;;
70829;SDS011;58451;51.550;7.208;2022-12-29T05:20:14;1.20;;;0.20;;
70829;SDS011;58451;51.550;7.208;2022-12-29T05:21:47;1.50;;;0.20;;
70829;SDS011;58451;51.550;7.208;2022-12-29T05:23:19;4.20;;;0.20;;
70829;SDS011;58451;51.550;7.208;2022-12-29T05:24:58;1.20;;;0.30;;
70829;SDS011;58451;51.550;7.208;2022-12-29T05:26:30;1.40;;;0.30;;
70829;SDS011;58451;51.550;7.208;2022-12-29T05:28:28;0.90;;;0.20;;
70829;SDS011;58451;51.550;7.208;2022-12-29T05:30:15;1.10;;;0.20;;
70829;SDS011;58451;51.550;7.208;2022-12-29T05:31:48;1.70;;;0.20;;
70829;SDS011;58451;51.550;7.208;2022-12-29T05:33:20;1.70;;;0.30;;
70829;SDS011;58451;51.550;7.208;2022-12-29T05:34:54;2.50;;;0.20;;
70829;SDS011;58451;51.550;7.208;2022-12-29T05:36:27;1.00;;;0.20;;
70829;SDS011;58451;51.550;7.208;2022-12-29T05:38:07;1.10;;;0.20;;
70829;SDS011;58451;51.550;7.208;2022-12-29T05:39:39;1.50;;;0.20;;
70829;SDS011;58451;51.550;7.208;2022-12-29T05:41:12;1.30;;;0.20;;
70829;SDS011;58451;51.550;7.208;2022-12-29T05:43:07;1.40;;;0.20;;
70829;SDS011;58451;51.550;7.208;2022-12-29T05:45:06;3.00;;;0.20;;
70829;SDS011;58451;51.550;7.208;2022-12-29T05:46:59;1.40;;;0.20;;
70829;SDS011;58451;51.550;7.208;2022-12-29T05:48:42;0.90;;;0.20;;
70829;SDS011;58451;51.550;7.208;2022-12-29T05:50:21;0.70;;;0.20;;
70829;SDS011;58451;51.550;7.208;2022-12-29T05:52:11;4.40;;;0.30;;
70829;SDS011;58451;51.550;7.208;2022-12-29T05:53:43;2.20;;;0.30;;
70829;SDS011;58451;51.550;7.208;2022-12-29T05:55:15;4.30;;;0.30;;
70829;SDS011;58451;51.550;7.208;2022-12-29T05:56:47;1.90;;;0.20;;
70829;SDS011;58451;51.550;7.208;2022-12-29T05:58:20;2.70;;;0.20;;
70829;SDS011;58451;51.550;7.208;2022-12-29T05:59:51;4.00;;;0.20;;
70829;SDS011;58451;51.550;7.208;2022-12-29T06:01:24;2.40;;;0.30;;
70829;SDS011;58451;51.550;7.208;2022-12-29T06:02:58;1.20;;;0.20;;
70829;SDS011;58451;51.550;7.208;2022-12-29T06:04:30;1.70;;;0.20;;
70829;SDS011;58451;51.550;7.208;2022-12-29T06:06:03;1.80;;;0.30;;
70829;SDS011;58451;51.550;7.208;2022-12-29T06:07:36;1.10;;;0.20;;
70829;SDS011;58451;51.550;7.208;2022-12-29T06:09:10;2.10;;;0.20;;
70829;SDS011;58451;51.550;7.208;2022-12-29T06:10:43;2.10;;;0.20;;
70829;SDS011;58451;51.550;7.208;2022-12-29T06:12:15;1.20;;;0.20;;
70829;SDS011;58451;51.550;7.208;2022-12-29T06:13:49;1.50;;;0.30;;
70829;SDS011;58451;51.550;7.208;2022-12-29T06:15:21;3.70;;;0.30;;
70829;SDS011;58451;51.550;7.208;2022-12-29T06:16:54;2.70;;;0.30;;
70829;SDS011;58451;51.550;7.208;2022-12-29T06:18:26;2.10;;;0.30;;
70829;SDS011;58451;51.550;7.208;2022-12-29T06:19:59;1.30;;;0.20;;
70829;SDS011;58451;51.550;7.208;2022-12-29T06:21:30;1.00;;;0.20;;
70829;SDS011;58451;51.550;7.208;2022-12-29T06:23:04;2.80;;;0.20;;
70829;SDS011;58451;51.550;7.208;2022-12-29T06:24:36;1.00;;;0.20;;
70829;SDS011;58451;51.550;7.208;2022-12-29T06:26:08;1.70;;;0.20;;
70829;SDS011;58451;51.550;7.208;2022-12-29T06:27:42;1.80;;;0.20;;
70829;SDS011;58451;51.550;7.208;2022-12-29T06:29:14;1.90;;;0.30;;
70829;SDS011;58451;51.550;7.208;2022-12-29T06:30:48;1.70;;;0.20;;
70829;SDS011;58451;51.550;7.208;2022-12-29T06:32:21;2.30;;;0.30;;
70829;SDS011;58451;51.550;7.208;2022-12-29T06:33:56;2.20;;;0.30;;
70829;SDS011;58451;51.550;7.208;2022-12-29T06:35:34;1.60;;;0.30;;
70829;SDS011;58451;51.550;7.208;2022-12-29T06:37:05;1.70;;;0.30;;
70829;SDS011;58451;51.550;7.208;2022-12-29T06:38:39;2.50;;;0.40;;
70829;SDS011;58451;51.550;7.208;2022-12-29T06:40:11;1.60;;;0.20;;
70829;SDS011;58451;51.550;7.208;2022-12-29T06:42:04;1.70;;;0.20;;
70829;SDS011;58451;51.550;7.208;2022-12-29T06:43:57;3.60;;;0.20;;
70829;SDS011;58451;51.550;7.208;2022-12-29T06:45:53;2.30;;;0.20;;
70829;SDS011;58451;51.550;7.208;2022-12-29T06:47:26;3.10;;;0.40;;
70829;SDS011;58451;51.550;7.208;2022-12-29T06:48:58;4.50;;;0.40;;
70829;SDS011;58451;51.550;7.208;2022-12-29T06:50:30;5.90;;;0.30;;
70829;SDS011;58451;51.550;7.208;2022-12-29T06:52:02;2.10;;;0.30;;
70829;SDS011;58451;51.550;7.208;2022-12-29T06:53:43;3.50;;;0.30;;
70829;SDS011;58451;51.550;7.208;2022-12-29T06:55:14;2.60;;;0.30;;
70829;SDS011;58451;51.550;7.208;2022-12-29T06:56:46;2.00;;;0.40;;
70829;SDS011;58451;51.550;7.208;2022-12-29T06:58:18;2.90;;;0.40;;
70829;SDS011;58451;51.550;7.208;2022-12-29T06:59:50;3.20;;;0.30;;
70829;SDS011;58451;51.550;7.208;2022-12-29T07:01:22;2.40;;;0.30;;
70829;SDS011;58451;51.550;7.208;2022-12-29T07:02:56;2.40;;;0.30;;
70829;SDS011;58451;51.550;7.208;2022-12-29T07:04:31;2.10;;;0.30;;
70829;SDS011;58451;51.550;7.208;2022-12-29T07:06:03;1.60;;;0.30;;
70829;SDS011;58451;51.550;7.208;2022-12-29T07:07:35;3.40;;;0.30;;
70829;SDS011;58451;51.550;7.208;2022-12-29T07:09:08;3.50;;;0.60;;
70829;SDS011;58451;51.550;7.208;2022-12-29T07:10:40;2.70;;;0.40;;
70829;SDS011;58451;51.550;7.208;2022-12-29T07:12:12;2.90;;;0.50;;
70829;SDS011;58451;51.550;7.208;2022-12-29T07:13:44;1.90;;;0.20;;
70829;SDS011;58451;51.550;7.208;2022-12-29T07:15:16;4.10;;;0.40;;
70829;SDS011;58451;51.550;7.208;2022-12-29T07:16:48;2.50;;;0.30;;
70829;SDS011;58451;51.550;7.208;2022-12-29T07:18:21;2.70;;;0.30;;
70829;SDS011;58451;51.550;7.208;2022-12-29T07:19:53;2.90;;;0.40;;
70829;SDS011;58451;51.550;7.208;2022-12-29T07:21:25;1.90;;;0.40;;
70829;SDS011;58451;51.550;7.208;2022-12-29T07:22:57;2.60;;;0.30;;
70829;SDS011;58451;51.550;7.208;2022-12-29T07:24:29;1.80;;;0.20;;
70829;SDS011;58451;51.550;7.208;2022-12-29T07:26:06;1.90;;;0.20;;
70829;SDS011;58451;51.550;7.208;2022-12-29T07:27:39;1.90;;;0.30;;
70829;SDS011;58451;51.550;7.208;2022-12-29T07:29:13;1.30;;;0.20;;
70829;SDS011;58451;51.550;7.208;2022-12-29T07:30:46;3.40;;;0.30;;
70829;SDS011;58451;51.550;7.208;2022-12-29T07:32:18;3.70;;;0.30;;
70829;SDS011;58451;51.550;7.208;2022-12-29T07:33:50;1.40;;;0.20;;
70829;SDS011;58451;51.550;7.208;2022-12-29T07:35:22;2.00;;;0.20;;
70829;SDS011;58451;51.550;7.208;2022-12-29T07:36:53;2.70;;;0.30;;
70829;SDS011;58451;51.550;7.208;2022-12-29T07:38:25;2.50;;;0.50;;
70829;SDS011;58451;51.550;7.208;2022-12-29T07:39:57;4.50;;;0.30;;
70829;SDS011;58451;51.550;7.208;2022-12-29T07:41:29;2.50;;;0.30;;
70829;SDS011;58451;51.550;7.208;2022-12-29T07:43:03;1.50;;;0.30;;
70829;SDS011;58451;51.550;7.208;2022-12-29T07:44:42;1.50;;;0.20;;
70829;SDS011;58451;51.550;7.208;2022-12-29T07:46:32;2.80;;;0.50;;
70829;SDS011;58451;51.550;7.208;2022-12-29T07:48:24;3.80;;;0.30;;
70829;SDS011;58451;51.550;7.208;2022-12-29T07:49:55;1.30;;;0.20;;
70829;SDS011;58451;51.550;7.208;2022-12-29T07:51:27;3.70;;;0.20;;
70829;SDS011;58451;51.550;7.208;2022-12-29T07:52:59;2.90;;;0.30;;
70829;SDS011;58451;51.550;7.208;2022-12-29T07:54:31;2.90;;;0.30;;
70829;SDS011;58451;51.550;7.208;2022-12-29T07:56:03;4.40;;;0.30;;
70829;SDS011;58451;51.550;7.208;2022-12-29T07:57:36;3.10;;;0.20;;
70829;SDS011;58451;51.550;7.208;2022-12-29T07:59:10;4.20;;;0.30;;
70829;SDS011;58451;51.550;7.208;2022-12-29T08:00:45;1.80;;;0.30;;
70829;SDS011;58451;51.550;7.208;2022-12-29T08:02:17;2.30;;;0.40;;
70829;SDS011;58451;51.550;7.208;2022-12-29T08:03:49;1.90;;;0.20;;
70829;SDS011;58451;51.550;7.208;2022-12-29T08:05:27;1.90;;;0.30;;
70829;SDS011;58451;51.550;7.208;2022-12-29T08:06:59;3.40;;;0.40;;
70829;SDS011;58451;51.550;7.208;2022-12-29T08:08:31;3.30;;;0.30;;
70829;SDS011;58451;51.550;7.208;2022-12-29T08:10:03;3.30;;;0.30;;
70829;SDS011;58451;51.550;7.208;2022-12-29T08:11:35;1.70;;;0.20;;
70829;SDS011;58451;51.550;7.208;2022-12-29T08:13:08;4.30;;;0.40;;
70829;SDS011;58451;51.550;7.208;2022-12-29T08:14:40;3.90;;;0.40;;
70829;SDS011;58451;51.550;7.208;2022-12-29T08:16:11;2.10;;;0.20;;
70829;SDS011;58451;51.550;7.208;2022-12-29T08:17:43;3.50;;;0.30;;
70829;SDS011;58451;51.550;7.208;2022-12-29T08:19:15;3.40;;;0.40;;
70829;SDS011;58451;51.550;7.208;2022-12-29T08:20:47;4.00;;;0.30;;
70829;SDS011;58451;51.550;7.208;2022-12-29T08:22:27;1.70;;;0.20;;
70829;SDS011;58451;51.550;7.208;2022-12-29T08:23:59;3.60;;;0.30;;
70829;SDS011;58451;51.550;7.208;2022-12-29T08:25:32;3.90;;;0.30;;
70829;SDS011;58451;51.550;7.208;2022-12-29T08:27:04;5.30;;;0.40;;
70829;SDS011;58451;51.550;7.208;2022-12-29T08:28:46;4.00;;;0.30;;
70829;SDS011;58451;51.550;7.208;2022-12-29T08:30:19;4.60;;;0.30;;
70829;SDS011;58451;51.550;7.208;2022-12-29T08:31:51;5.60;;;0.40;;
70829;SDS011;58451;51.550;7.208;2022-12-29T08:33:23;4.00;;;0.30;;
70829;SDS011;58451;51.550;7.208;2022-12-29T08:34:56;5.40;;;0.40;;
70829;SDS011;58451;51.550;7.208;2022-12-29T08:36:28;3.00;;;0.20;;
70829;SDS011;58451;51.550;7.208;2022-12-29T08:38:01;6.30;;;0.50;;
70829;SDS011;58451;51.550;7.208;2022-12-29T08:39:32;4.40;;;0.30;;
70829;SDS011;58451;51.550;7.208;2022-12-29T08:41:05;2.10;;;0.30;;
70829;SDS011;58451;51.550;7.208;2022-12-29T08:42:37;3.70;;;0.30;;
70829;SDS011;58451;51.550;7.208;2022-12-29T08:44:09;4.20;;;0.30;;
70829;SDS011;58451;51.550;7.208;2022-12-29T08:45:42;4.20;;;0.20;;
70829;SDS011;58451;51.550;7.208;2022-12-29T08:47:14;4.10;;;0.30;;
70829;SDS011;58451;51.550;7.208;2022-12-29T08:48:46;5.90;;;0.40;;
70829;SDS011;58451;51.550;7.208;2022-12-29T08:50:18;3.40;;;0.40;;
70829;SDS011;58451;51.550;7.208;2022-12-29T08:51:50;4.10;;;0.70;;
70829;SDS011;58451;51.550;7.208;2022-12-29T08:53:22;4.30;;;0.30;;
70829;SDS011;58451;51.550;7.208;2022-12-29T08:54:54;7.50;;;0.70;;
70829;SDS011;58451;51.550;7.208;2022-12-29T08:56:26;4.90;;;0.40;;
70829;SDS011;58451;51.550;7.208;2022-12-29T08:58:00;4.70;;;0.50;;
70829;SDS011;58451;51.550;7.208;2022-12-29T08:59:32;4.90;;;0.40;;
70829;SDS011;58451;51.550;7.208;2022-12-29T09:01:04;4.50;;;0.50;;
70829;SDS011;58451;51.550;7.208;2022-12-29T09:02:36;5.30;;;0.40;;
70829;SDS011;58451;51.550;7.208;2022-12-29T09:04:09;3.10;;;0.30;;
70829;SDS011;58451;51.550;7.208;2022-12-29T09:05:50;4.80;;;0.40;;
70829;SDS011;58451;51.550;7.208;2022-12-29T09:07:24;4.30;;;0.60;;
70829;SDS011;58451;51.550;7.208;2022-12-29T09:08:56;4.10;;;0.30;;
70829;SDS011;58451;51.550;7.208;2022-12-29T09:10:28;5.40;;;0.50;;
70829;SDS011;58451;51.550;7.208;2022-12-29T09:11:59;6.30;;;0.50;;
70829;SDS011;58451;51.550;7.208;2022-12-29T09:13:31;3.60;;;0.30;;
70829;SDS011;58451;51.550;7.208;2022-12-29T09:15:05;7.50;;;0.40;;
70829;SDS011;58451;51.550;7.208;2022-12-29T09:16:38;3.30;;;0.30;;
70829;SDS011;58451;51.550;7.208;2022-12-29T09:18:32;3.50;;;0.40;;
70829;SDS011;58451;51.550;7.208;2022-12-29T09:20:05;3.20;;;0.30;;
70829;SDS011;58451;51.550;7.208;2022-12-29T09:21:37;3.70;;;0.30;;
70829;SDS011;58451;51.550;7.208;2022-12-29T09:23:09;5.50;;;0.30;;
70829;SDS011;58451;51.550;7.208;2022-12-29T09:24:41;5.00;;;0.40;;
70829;SDS011;58451;51.550;7.208;2022-12-29T09:26:13;7.00;;;0.40;;
70829;SDS011;58451;51.550;7.208;2022-12-29T09:27:44;7.00;;;0.50;;
70829;SDS011;58451;51.550;7.208;2022-12-29T09:29:16;4.10;;;0.40;;
70829;SDS011;58451;51.550;7.208;2022-12-29T09:30:49;3.20;;;0.60;;
70829;SDS011;58451;51.550;7.208;2022-12-29T09:32:21;3.90;;;0.20;;
70829;SDS011;58451;51.550;7.208;2022-12-29T09:33:59;5.10;;;0.40;;
70829;SDS011;58451;51.550;7.208;2022-12-29T09:35:31;5.60;;;0.40;;
70829;SDS011;58451;51.550;7.208;2022-12-29T09:37:02;3.60;;;0.30;;
70829;SDS011;58451;51.550;7.208;2022-12-29T09:38:34;2.00;;;0.30;;
70829;SDS011;58451;51.550;7.208;2022-12-29T09:40:07;3.80;;;0.30;;
70829;SDS011;58451;51.550;7.208;2022-12-29T09:42:03;4.70;;;0.50;;
70829;SDS011;58451;51.550;7.208;2022-12-29T09:47:55;2.90;;;0.30;;
70829;SDS011;58451;51.550;7.208;2022-12-29T09:51:31;6.70;;;0.60;;
70829;SDS011;58451;51.550;7.208;2022-12-29T09:56:47;5.20;;;0.50;;
70829;SDS011;58451;51.550;7.208;2022-12-29T09:58:26;4.50;;;0.40;;
70829;SDS011;58451;51.550;7.208;2022-12-29T10:00:48;4.80;;;0.40;;
70829;SDS011;58451;51.550;7.208;2022-12-29T10:02:40;3.70;;;0.40;;
70829;SDS011;58451;51.550;7.208;2022-12-29T10:04:15;4.00;;;0.30;;
70829;SDS011;58451;51.550;7.208;2022-12-29T10:08:10;5.30;;;0.20;;
70829;SDS011;58451;51.550;7.208;2022-12-29T10:10:38;4.10;;;0.30;;
70829;SDS011;58451;51.550;7.208;2022-12-29T10:12:25;3.30;;;0.40;;
70829;SDS011;58451;51.550;7.208;2022-12-29T10:16:18;1.40;;;0.20;;
70829;SDS011;58451;51.550;7.208;2022-12-29T10:24:11;3.90;;;0.30;;
70829;SDS011;58451;51.550;7.208;2022-12-29T10:25:44;3.50;;;0.30;;
70829;SDS011;58451;51.550;7.208;2022-12-29T10:27:17;5.60;;;0.30;;
70829;SDS011;58451;51.550;7.208;2022-12-29T10:28:57;2.50;;;0.40;;
70829;SDS011;58451;51.550;7.208;2022-12-29T10:30:35;4.60;;;0.60;;
70829;SDS011;58451;51.550;7.208;2022-12-29T10:34:34;4.20;;;0.40;;
70829;SDS011;58451;51.550;7.208;2022-12-29T10:36:19;3.20;;;0.40;;